createdAt,value
2023-03-02T00:02:03.382Z,3.02
2023-03-02T00:04:52.645Z,3.00
2023-03-02T00:07:24.273Z,2.93
2023-03-02T00:09:51.439Z,2.93
2023-03-02T00:12:18.634Z,2.95
2023-03-02T00:14:45.827Z,2.85
2023-03-02T00:17:12.964Z,2.82
2023-03-02T00:19:40.323Z,2.78
2023-03-02T00:22:09.015Z,2.72
2023-03-02T00:24:37.386Z,2.56
2023-03-02T00:27:04.537Z,2.54
2023-03-02T00:29:31.900Z,2.52
2023-03-02T00:31:59.135Z,2.49
2023-03-02T00:34:26.249Z,2.47
2023-03-02T00:36:53.493Z,2.42
2023-03-02T00:39:21.077Z,2.42
2023-03-02T00:41:48.729Z,2.44
2023-03-02T00:44:17.470Z,2.48
2023-03-02T00:46:44.879Z,2.46
2023-03-02T00:49:12.806Z,2.51
2023-03-02T00:51:39.924Z,2.49
2023-03-02T00:54:07.046Z,2.44
2023-03-02T00:56:34.652Z,2.40
2023-03-02T00:59:27.499Z,2.43
2023-03-02T01:01:58.209Z,2.46
2023-03-02T01:04:31.561Z,2.43
2023-03-02T01:07:00.427Z,2.32
2023-03-02T01:09:27.870Z,2.31
2023-03-02T01:11:55.260Z,2.28
2023-03-02T01:14:23.020Z,2.30
2023-03-02T01:16:50.149Z,2.33
2023-03-02T01:19:17.474Z,2.31
2023-03-02T01:21:44.735Z,2.31
2023-03-02T01:24:11.939Z,2.29
2023-03-02T01:26:39.087Z,2.28
2023-03-02T01:29:06.283Z,2.27
2023-03-02T01:31:33.523Z,2.28
2023-03-02T01:34:00.793Z,2.29
2023-03-02T01:36:27.974Z,2.26
2023-03-02T01:38:55.276Z,2.24
2023-03-02T01:45:53.558Z,2.21
2023-03-02T01:48:28.942Z,2.10
2023-03-02T01:50:56.205Z,2.10
2023-03-02T01:53:26.288Z,2.10
2023-03-02T01:55:53.595Z,2.08
2023-03-02T01:58:20.936Z,2.02
2023-03-02T02:00:48.245Z,2.00
2023-03-02T02:03:21.070Z,2.01
2023-03-02T02:05:56.443Z,2.00
2023-03-02T02:08:23.994Z,1.99
2023-03-02T02:10:51.673Z,1.98
2023-03-02T02:13:19.041Z,1.95
2023-03-02T02:15:46.242Z,1.94
2023-03-02T02:18:13.486Z,1.88
2023-03-02T02:20:42.470Z,1.89
2023-03-02T02:23:19.250Z,1.86
2023-03-02T02:25:55.475Z,1.86
2023-03-02T02:28:27.152Z,1.81
2023-03-02T02:31:05.981Z,1.78
2023-03-02T02:33:34.119Z,1.73
2023-03-02T02:36:05.258Z,1.70
2023-03-02T02:38:33.799Z,1.70
2023-03-02T02:41:04.457Z,1.69
2023-03-02T02:43:32.844Z,1.62
2023-03-02T02:46:00.551Z,1.60
2023-03-02T02:48:31.204Z,1.48
2023-03-02T02:51:03.347Z,1.41
2023-03-02T02:53:41.860Z,1.41
2023-03-02T02:56:09.634Z,1.39
2023-03-02T02:58:43.800Z,1.42
2023-03-02T03:01:14.187Z,1.46
2023-03-02T03:03:46.555Z,1.49
2023-03-02T03:06:18.403Z,1.51
2023-03-02T03:08:49.090Z,1.50
2023-03-02T03:11:27.485Z,1.48
2023-03-02T03:14:20.896Z,1.46
2023-03-02T03:16:49.546Z,1.39
2023-03-02T03:19:18.378Z,1.37
2023-03-02T03:21:45.686Z,1.38
2023-03-02T03:24:13.096Z,1.36
2023-03-02T03:26:40.349Z,1.36
2023-03-02T03:29:07.623Z,1.33
2023-03-02T03:31:34.941Z,1.35
2023-03-02T03:34:02.746Z,1.37
2023-03-02T03:36:31.138Z,1.35
2023-03-02T03:38:59.035Z,1.35
2023-03-02T03:41:26.375Z,1.33
2023-03-02T03:43:53.630Z,1.34
2023-03-02T03:46:21.206Z,1.34
2023-03-02T03:48:48.424Z,1.36
2023-03-02T03:51:15.756Z,1.35
2023-03-02T03:53:42.978Z,1.34
2023-03-02T03:56:10.414Z,1.30
2023-03-02T03:58:37.872Z,1.28
2023-03-02T04:01:05.211Z,1.24
2023-03-02T04:03:32.456Z,1.23
2023-03-02T04:05:59.697Z,1.24
2023-03-02T04:08:27.704Z,1.19
2023-03-02T04:10:54.864Z,1.13
2023-03-02T04:13:22.000Z,1.04
2023-03-02T04:15:49.211Z,0.99
2023-03-02T04:18:16.378Z,0.99
2023-03-02T04:20:43.586Z,0.98
2023-03-02T04:23:10.859Z,0.97
2023-03-02T04:25:38.043Z,0.96
2023-03-02T04:28:05.350Z,0.98
2023-03-02T04:30:33.147Z,0.98
2023-03-02T04:33:00.439Z,0.99
2023-03-02T04:35:27.725Z,0.99
2023-03-02T04:37:54.993Z,0.97
2023-03-02T04:40:22.224Z,0.96
2023-03-02T04:42:50.649Z,0.94
2023-03-02T04:45:17.993Z,0.85
2023-03-02T04:47:45.150Z,0.79
2023-03-02T04:50:13.844Z,0.63
2023-03-02T04:52:41.797Z,0.52
2023-03-02T04:55:09.493Z,0.52
2023-03-02T04:57:36.776Z,0.47
2023-03-02T05:00:04.930Z,0.45
2023-03-02T05:02:32.264Z,0.44
2023-03-02T05:04:59.523Z,0.47
2023-03-02T05:07:27.859Z,0.46
2023-03-02T05:09:55.102Z,0.41
2023-03-02T05:12:22.281Z,0.44
2023-03-02T05:14:49.487Z,0.41
2023-03-02T05:17:16.675Z,0.42
2023-03-02T05:19:43.833Z,0.50
2023-03-02T05:22:11.036Z,0.53
2023-03-02T05:24:38.334Z,0.53
2023-03-02T05:27:05.489Z,0.56
2023-03-02T05:29:32.685Z,0.56
2023-03-02T05:31:59.943Z,0.59
2023-03-02T05:34:27.711Z,0.61
2023-03-02T05:36:54.991Z,0.61
2023-03-02T05:39:22.228Z,0.60
2023-03-02T05:41:49.506Z,0.53
2023-03-02T05:44:16.727Z,0.54
2023-03-02T05:46:43.955Z,0.54
2023-03-02T05:49:11.271Z,0.56
2023-03-02T05:51:38.402Z,0.57
2023-03-02T05:54:05.670Z,0.55
2023-03-02T05:56:33.336Z,0.46
2023-03-02T05:59:00.776Z,0.47
2023-03-02T06:01:27.948Z,0.43
2023-03-02T06:03:55.828Z,0.39
2023-03-02T06:06:23.080Z,0.39
2023-03-02T06:08:50.253Z,0.42
2023-03-02T06:11:17.412Z,0.42
2023-03-02T06:13:44.667Z,0.30
2023-03-02T06:16:11.831Z,0.19
2023-03-02T06:18:41.387Z,0.19
2023-03-02T06:21:08.963Z,0.12
2023-03-02T06:23:36.156Z,0.17
2023-03-02T06:26:10.742Z,0.03
2023-03-02T06:28:51.358Z,-0.16
2023-03-02T06:31:20.744Z,-0.23
2023-03-02T06:33:48.093Z,-0.18
2023-03-02T06:36:16.916Z,-0.08
2023-03-02T06:38:44.674Z,-0.03
2023-03-02T06:41:11.852Z,0.01
2023-03-02T06:43:39.128Z,0.06
2023-03-02T06:46:06.728Z,0.09
2023-03-02T06:48:33.995Z,0.12
2023-03-02T06:51:01.303Z,0.12
2023-03-02T06:53:28.638Z,-0.02
2023-03-02T06:55:55.828Z,-0.09
2023-03-02T06:58:22.997Z,-0.16
2023-03-02T07:00:50.171Z,-0.29
2023-03-02T07:03:17.859Z,-0.40
2023-03-02T07:05:46.315Z,-0.45
2023-03-02T07:08:13.701Z,-0.60
2023-03-02T07:10:40.857Z,-0.69
2023-03-02T07:13:09.248Z,-0.76
2023-03-02T07:15:39.138Z,-0.66
2023-03-02T07:18:06.558Z,-0.64
2023-03-02T07:20:34.236Z,-0.60
2023-03-02T07:23:02.186Z,-0.48
2023-03-02T07:25:29.462Z,-0.40
2023-03-02T07:27:56.641Z,-0.29
2023-03-02T07:30:23.935Z,-0.29
2023-03-02T07:32:51.476Z,-0.14
2023-03-02T07:35:18.996Z,-0.06
2023-03-02T07:37:46.281Z,-0.04
2023-03-02T07:40:13.832Z,0.07
2023-03-02T07:42:41.299Z,0.16
2023-03-02T07:45:08.891Z,0.21
2023-03-02T07:47:36.164Z,0.12
2023-03-02T07:50:03.871Z,-0.04
2023-03-02T07:52:31.106Z,-0.05
2023-03-02T07:54:58.314Z,0.07
2023-03-02T07:57:25.605Z,0.07
2023-03-02T07:59:52.880Z,0.07
2023-03-02T08:02:22.664Z,0.19
2023-03-02T08:04:49.902Z,0.28
2023-03-02T08:07:18.914Z,0.32
2023-03-02T08:09:46.215Z,0.32
2023-03-02T08:12:13.437Z,0.40
2023-03-02T08:14:40.773Z,0.39
2023-03-02T08:17:08.408Z,0.42
2023-03-02T08:19:35.645Z,0.44
2023-03-02T08:22:02.832Z,0.39
2023-03-02T08:24:30.081Z,0.45
2023-03-02T08:27:00.980Z,0.48
2023-03-02T08:29:28.397Z,0.56
2023-03-02T08:31:55.678Z,0.57
2023-03-02T08:34:22.994Z,0.61
2023-03-02T08:36:50.260Z,0.64
2023-03-02T08:39:17.833Z,0.73
2023-03-02T08:41:45.125Z,0.76
2023-03-02T08:44:12.307Z,0.83
2023-03-02T08:46:39.549Z,0.88
2023-03-02T08:49:06.749Z,0.84
2023-03-02T08:51:34.282Z,0.68
2023-03-02T08:54:02.536Z,0.69
2023-03-02T08:56:33.142Z,0.78
2023-03-02T08:59:04.308Z,0.82
2023-03-02T09:01:36.161Z,0.80
2023-03-02T09:04:05.354Z,0.89
2023-03-02T09:06:35.410Z,0.86
2023-03-02T09:09:03.789Z,0.93
2023-03-02T09:11:31.890Z,1.01
2023-03-02T09:13:59.316Z,1.07
2023-03-02T09:16:26.853Z,1.19
2023-03-02T09:18:55.217Z,1.24
2023-03-02T09:21:22.667Z,1.26
2023-03-02T09:23:53.720Z,1.26
2023-03-02T09:26:21.050Z,1.32
2023-03-02T09:28:48.284Z,1.35
2023-03-02T09:31:15.481Z,1.45
2023-03-02T09:33:42.830Z,1.46
2023-03-02T09:36:11.615Z,1.40
2023-03-02T09:38:38.824Z,1.36
2023-03-02T09:41:21.019Z,1.39
2023-03-02T09:44:08.561Z,1.45
2023-03-02T09:46:56.708Z,1.60
2023-03-02T09:49:35.322Z,1.67
2023-03-02T09:52:23.999Z,1.68
2023-03-02T09:54:51.417Z,1.63
2023-03-02T09:57:24.056Z,1.67
2023-03-02T10:00:09.435Z,1.70
2023-03-02T10:02:55.396Z,1.83
2023-03-02T10:05:28.038Z,1.77
2023-03-02T10:07:57.410Z,1.70
2023-03-02T10:10:52.577Z,1.74
2023-03-02T10:13:23.796Z,1.82
2023-03-02T10:16:13.496Z,1.84
2023-03-02T10:18:59.184Z,2.03
2023-03-02T10:21:59.715Z,2.25
2023-03-02T10:25:08.186Z,2.07
2023-03-02T10:27:38.918Z,2.04
2023-03-02T10:30:27.594Z,1.79
2023-03-02T10:32:56.748Z,1.81
2023-03-02T10:35:25.769Z,1.94
2023-03-02T10:38:00.395Z,2.08
2023-03-02T10:41:03.176Z,2.28
2023-03-02T10:43:55.643Z,2.23
2023-03-02T10:46:22.823Z,2.07
2023-03-02T10:48:56.325Z,2.01
2023-03-02T10:51:26.077Z,1.88
2023-03-02T10:54:07.729Z,2.01
2023-03-02T10:56:35.365Z,2.20
2023-03-02T10:59:25.045Z,2.42
2023-03-02T11:02:02.919Z,2.36
2023-03-02T11:04:31.487Z,2.18
2023-03-02T11:07:09.008Z,2.31
2023-03-02T11:09:36.142Z,2.45
2023-03-02T11:12:03.374Z,2.46
2023-03-02T11:14:30.541Z,2.44
2023-03-02T11:17:00.969Z,2.43
2023-03-02T11:19:35.834Z,2.46
2023-03-02T11:22:09.364Z,2.66
2023-03-02T11:24:43.446Z,2.85
2023-03-02T11:27:15.899Z,2.97
2023-03-02T11:29:53.356Z,2.94
2023-03-02T11:32:26.587Z,3.05
2023-03-02T11:35:00.692Z,3.25
2023-03-02T11:37:47.080Z,3.39
2023-03-02T11:40:32.150Z,3.41
2023-03-02T11:43:00.310Z,3.26
2023-03-02T11:45:33.574Z,3.34
2023-03-02T11:48:12.640Z,3.30
2023-03-02T11:50:53.555Z,3.38
2023-03-02T11:53:21.074Z,3.41
2023-03-02T11:55:50.681Z,3.55
2023-03-02T11:58:20.715Z,3.98
2023-03-02T12:00:48.998Z,4.38
2023-03-02T12:03:16.123Z,4.64
2023-03-02T12:06:06.693Z,5.18
2023-03-02T12:08:46.439Z,5.83
2023-03-02T12:11:16.435Z,6.16
2023-03-02T12:14:05.523Z,6.54
2023-03-02T12:16:40.254Z,6.73
2023-03-02T12:19:16.657Z,6.34
2023-03-02T12:21:56.932Z,6.39
2023-03-02T12:24:31.049Z,6.57
2023-03-02T12:27:02.162Z,7.06
2023-03-02T12:29:45.756Z,7.58
2023-03-02T12:32:18.863Z,8.11
2023-03-02T12:35:08.516Z,8.57
2023-03-02T12:37:53.278Z,8.27
2023-03-02T12:40:33.915Z,8.42
2023-03-02T12:43:27.071Z,8.94
2023-03-02T12:46:27.612Z,8.75
2023-03-02T12:48:57.851Z,9.09
2023-03-02T12:51:27.786Z,9.73
2023-03-02T12:54:05.869Z,10.07
2023-03-02T12:56:34.040Z,9.94
2023-03-02T12:59:01.436Z,10.56
2023-03-02T13:01:30.928Z,11.16
2023-03-02T13:03:58.686Z,11.50
2023-03-02T13:06:28.373Z,11.88
2023-03-02T13:08:56.687Z,12.62
2023-03-02T13:11:31.135Z,12.98
2023-03-02T13:13:59.858Z,13.37
2023-03-02T13:16:33.020Z,13.96
2023-03-02T13:19:02.964Z,14.07
2023-03-02T13:21:38.150Z,14.19
2023-03-02T13:24:28.401Z,14.47
2023-03-02T13:26:57.653Z,14.59
2023-03-02T13:29:28.483Z,14.79
2023-03-02T13:31:55.846Z,15.20
2023-03-02T13:34:28.504Z,15.40
2023-03-02T13:36:55.679Z,15.07
2023-03-02T13:39:28.289Z,15.26
2023-03-02T13:42:00.196Z,14.89
2023-03-02T13:44:30.749Z,14.94
2023-03-02T13:46:58.458Z,15.03
2023-03-02T13:49:31.214Z,15.17
2023-03-02T13:52:22.395Z,15.36
2023-03-02T13:54:49.578Z,15.64
2023-03-02T13:57:30.649Z,15.97
2023-03-02T13:59:59.513Z,16.54
2023-03-02T14:02:29.510Z,16.67
2023-03-02T14:04:57.600Z,16.00
2023-03-02T14:07:24.852Z,15.60
2023-03-02T14:09:52.022Z,15.44
2023-03-02T14:12:30.984Z,15.65
2023-03-02T14:15:00.794Z,15.24
2023-03-02T14:17:28.155Z,14.62
2023-03-02T14:19:55.753Z,13.94
2023-03-02T14:22:26.631Z,13.38
2023-03-02T14:24:54.751Z,13.00
2023-03-02T14:27:30.034Z,12.74
2023-03-02T14:29:57.352Z,12.32
2023-03-02T14:32:24.552Z,11.75
2023-03-02T14:34:51.827Z,11.57
2023-03-02T14:37:22.199Z,11.21
2023-03-02T14:39:56.755Z,10.72
2023-03-02T14:42:25.139Z,10.06
2023-03-02T14:44:52.628Z,9.63
2023-03-02T14:47:21.654Z,9.26
2023-03-02T14:49:49.430Z,9.19
2023-03-02T14:52:25.055Z,9.13
2023-03-02T14:54:56.488Z,8.39
2023-03-02T14:57:28.223Z,7.78
2023-03-02T14:59:56.157Z,7.79
2023-03-02T15:02:26.786Z,7.77
2023-03-02T15:04:57.063Z,7.24
2023-03-02T15:07:27.682Z,7.33
2023-03-02T15:09:58.423Z,6.93
2023-03-02T15:12:27.815Z,6.52
2023-03-02T15:14:55.125Z,6.22
2023-03-02T15:17:22.330Z,5.91
2023-03-02T15:19:49.580Z,6.05
2023-03-02T15:22:16.857Z,6.23
2023-03-02T15:24:44.054Z,6.01
2023-03-02T15:27:11.208Z,5.77
2023-03-02T15:29:38.570Z,5.82
2023-03-02T15:32:05.937Z,5.61
2023-03-02T15:34:33.137Z,5.52
2023-03-02T15:37:01.412Z,5.54
2023-03-02T15:39:28.571Z,5.41
2023-03-02T15:41:55.809Z,5.28
2023-03-02T15:44:24.742Z,5.17
2023-03-02T15:46:56.240Z,4.93
2023-03-02T15:49:24.473Z,4.90
2023-03-02T15:51:52.958Z,4.82
2023-03-02T15:54:21.245Z,4.71
2023-03-02T15:56:53.586Z,4.81
2023-03-02T15:59:25.676Z,4.49
2023-03-02T16:01:59.204Z,4.17
2023-03-02T16:04:27.063Z,3.89
2023-03-02T16:06:54.993Z,3.62
2023-03-02T16:09:23.513Z,3.26
2023-03-02T16:11:50.860Z,3.15
2023-03-02T16:14:18.674Z,3.17
2023-03-02T16:16:46.233Z,3.39
2023-03-02T16:19:17.188Z,3.50
2023-03-02T16:21:46.955Z,3.60
2023-03-02T16:24:16.105Z,3.47
2023-03-02T16:26:43.566Z,3.29
2023-03-02T16:29:12.143Z,3.32
2023-03-02T16:31:42.205Z,3.44
2023-03-02T16:34:10.074Z,3.48
2023-03-02T16:36:39.013Z,3.50
2023-03-02T16:39:07.197Z,3.59
2023-03-02T16:41:35.149Z,3.62
2023-03-02T16:44:02.685Z,3.54
2023-03-02T16:46:31.985Z,3.58
2023-03-02T16:48:59.480Z,3.64
2023-03-02T16:51:26.712Z,3.58
2023-03-02T16:53:54.140Z,3.43
2023-03-02T16:56:21.577Z,3.25
2023-03-02T16:58:49.194Z,3.38
2023-03-02T17:01:19.100Z,3.24
2023-03-02T17:03:47.462Z,3.11
2023-03-02T17:06:16.114Z,3.03
2023-03-02T17:08:43.425Z,2.94
2023-03-02T17:11:10.847Z,2.89
2023-03-02T17:13:39.049Z,2.98
2023-03-02T17:16:06.650Z,3.09
2023-03-02T17:18:33.978Z,3.15
2023-03-02T17:21:02.268Z,2.87
2023-03-02T17:23:31.180Z,2.71
2023-03-02T17:25:58.510Z,2.74
2023-03-02T17:28:26.072Z,2.61
